createdAt,value
2019-04-06T00:01:58.472Z,11.33
2019-04-06T00:04:26.434Z,12.03
2019-04-06T00:07:13.693Z,11.90
2019-04-06T00:09:46.781Z,12.57
2019-04-06T00:12:14.634Z,12.20
2019-04-06T00:14:42.386Z,12.03
2019-04-06T00:17:10.193Z,12.47
2019-04-06T00:19:37.927Z,12.07
2019-04-06T00:22:05.716Z,11.73
2019-04-06T00:24:33.748Z,12.60
2019-04-06T00:27:21.058Z,12.07
2019-04-06T00:29:53.921Z,13.60
2019-04-06T00:32:31.912Z,12.67
2019-04-06T00:34:59.714Z,12.17
2019-04-06T00:37:27.612Z,12.80
2019-04-06T00:39:55.656Z,12.60
2019-04-06T00:42:23.433Z,12.13
2019-04-06T00:44:51.321Z,13.47
2019-04-06T00:47:19.098Z,13.27
2019-04-06T00:49:46.998Z,12.90
2019-04-06T00:52:14.800Z,13.30
2019-04-06T00:54:42.635Z,12.47
2019-04-06T00:57:10.457Z,12.17
2019-04-06T00:59:38.223Z,11.87
2019-04-06T01:02:09.911Z,11.97
2019-04-06T01:04:37.674Z,12.17
2019-04-06T01:07:05.514Z,11.77
2019-04-06T01:09:33.329Z,12.77
2019-04-06T01:12:01.131Z,12.13
2019-04-06T01:14:28.862Z,10.97
2019-04-06T01:16:56.598Z,12.53
2019-04-06T01:19:24.384Z,12.00
2019-04-06T01:21:52.227Z,12.60
2019-04-06T01:24:19.986Z,11.47
2019-04-06T01:26:47.762Z,11.33
2019-04-06T01:29:15.601Z,12.40
2019-04-06T01:31:43.785Z,11.80
2019-04-06T01:34:11.634Z,11.57
2019-04-06T01:36:39.436Z,12.03
2019-04-06T01:39:07.282Z,11.50
2019-04-06T01:41:35.280Z,12.80
2019-04-06T01:44:03.116Z,12.17
2019-04-06T01:46:30.917Z,12.23
2019-04-06T01:48:58.692Z,11.97
2019-04-06T01:51:26.586Z,12.10
2019-04-06T01:53:54.342Z,12.47
2019-04-06T01:56:22.101Z,13.23
2019-04-06T01:58:49.862Z,13.20
2019-04-06T02:01:31.362Z,13.33
2019-04-06T02:03:59.138Z,11.97
2019-04-06T02:06:26.883Z,12.80
2019-04-06T02:08:54.757Z,12.53
2019-04-06T02:11:22.555Z,12.30
2019-04-06T02:13:50.268Z,11.27
2019-04-06T02:16:18.063Z,12.37
2019-04-06T02:18:45.780Z,12.37
2019-04-06T02:21:13.620Z,12.17
2019-04-06T02:23:41.444Z,12.60
2019-04-06T02:26:09.351Z,12.70
2019-04-06T02:28:37.171Z,13.10
2019-04-06T02:31:16.241Z,12.63
2019-04-06T02:33:57.609Z,13.03
2019-04-06T02:36:45.135Z,10.90
2019-04-06T02:39:35.378Z,12.17
2019-04-06T02:42:10.421Z,12.97
2019-04-06T02:44:38.213Z,12.73
2019-04-06T02:47:05.998Z,12.70
2019-04-06T02:49:33.751Z,12.70
2019-04-06T02:52:01.591Z,12.37
2019-04-06T02:54:29.430Z,12.77
2019-04-06T02:56:57.274Z,12.63
2019-04-06T02:59:25.135Z,12.97
2019-04-06T03:01:52.933Z,12.87
2019-04-06T03:04:20.740Z,12.57
2019-04-06T03:06:48.556Z,12.47
2019-04-06T03:09:16.318Z,12.07
2019-04-06T03:11:44.182Z,13.30
2019-04-06T03:14:11.976Z,12.60
2019-04-06T03:16:39.781Z,13.17
2019-04-06T03:19:07.780Z,13.07
2019-04-06T03:21:36.002Z,12.47
2019-04-06T03:24:03.878Z,12.17
2019-04-06T03:26:31.669Z,12.97
2019-04-06T03:28:59.459Z,12.37
2019-04-06T03:31:28.699Z,11.70
2019-04-06T03:33:56.719Z,12.40
2019-04-06T03:36:24.566Z,13.37
2019-04-06T03:38:52.560Z,12.40
2019-04-06T03:41:20.415Z,12.83
2019-04-06T03:43:48.182Z,11.80
2019-04-06T03:46:15.947Z,11.93
2019-04-06T03:48:43.707Z,12.53
2019-04-06T03:51:12.076Z,12.30
2019-04-06T03:53:40.069Z,14.33
2019-04-06T03:56:09.708Z,11.97
2019-04-06T03:58:37.521Z,12.90
2019-04-06T04:01:05.420Z,12.47
2019-04-06T04:03:33.337Z,12.73
2019-04-06T04:06:01.118Z,12.43
2019-04-06T04:08:28.833Z,12.90
2019-04-06T04:10:56.991Z,12.40
2019-04-06T04:13:25.415Z,12.97
2019-04-06T04:15:56.398Z,13.20
2019-04-06T04:18:22.824Z,13.07
2019-04-06T04:20:50.823Z,12.80
2019-04-06T04:23:18.751Z,12.53
2019-04-06T04:25:46.759Z,13.00
2019-04-06T04:28:14.517Z,12.53
2019-04-06T04:30:42.347Z,13.13
2019-04-06T04:33:10.155Z,13.33
2019-04-06T04:35:38.227Z,12.20
2019-04-06T04:38:06.102Z,12.20
2019-04-06T04:40:33.871Z,11.63
2019-04-06T04:43:01.681Z,12.90
2019-04-06T04:45:29.466Z,12.60
2019-04-06T04:47:57.272Z,13.13
2019-04-06T04:50:25.167Z,12.67
2019-04-06T04:52:52.961Z,13.37
2019-04-06T04:55:20.727Z,13.00
2019-04-06T04:57:48.577Z,12.47
2019-04-06T05:00:16.680Z,12.40
2019-04-06T05:02:44.489Z,16.93
2019-04-06T05:05:13.040Z,13.50
2019-04-06T05:07:40.787Z,12.90
2019-04-06T05:10:09.759Z,12.90
2019-04-06T05:12:37.551Z,13.17
2019-04-06T05:15:08.252Z,13.33
2019-04-06T05:17:36.244Z,12.90
2019-04-06T05:20:06.014Z,12.23
2019-04-06T05:22:33.783Z,13.27
2019-04-06T05:25:01.584Z,12.57
2019-04-06T05:27:29.347Z,12.67
2019-04-06T05:29:57.151Z,14.47
2019-04-06T05:32:24.943Z,13.17
2019-04-06T05:34:52.732Z,12.70
2019-04-06T05:37:20.546Z,13.50
2019-04-06T05:39:48.375Z,15.90
2019-04-06T05:42:16.283Z,14.23
2019-04-06T05:44:44.148Z,14.60
2019-04-06T05:47:11.998Z,13.90
2019-04-06T05:49:39.753Z,14.43
2019-04-06T05:52:07.526Z,17.13
2019-04-06T05:54:35.483Z,14.63
2019-04-06T05:57:03.492Z,14.27
2019-04-06T05:59:31.368Z,15.00
2019-04-06T06:01:59.094Z,13.27
2019-04-06T06:04:27.073Z,13.40
2019-04-06T06:06:54.845Z,12.70
2019-04-06T06:09:22.695Z,13.60
2019-04-06T06:11:50.552Z,12.67
2019-04-06T06:14:18.292Z,12.77
2019-04-06T06:16:46.082Z,12.47
2019-04-06T06:19:13.818Z,12.23
2019-04-06T06:21:41.691Z,12.93
2019-04-06T06:24:09.537Z,12.83
2019-04-06T06:26:37.355Z,14.40
2019-04-06T06:29:05.197Z,12.20
2019-04-06T06:31:33.139Z,13.43
2019-04-06T06:34:00.916Z,13.90
2019-04-06T06:36:28.917Z,14.43
2019-04-06T06:38:56.691Z,14.97
2019-04-06T06:41:24.491Z,17.37
2019-04-06T06:43:52.293Z,17.60
2019-04-06T06:46:20.112Z,19.53
2019-04-06T06:48:48.435Z,19.77
2019-04-06T06:51:16.296Z,18.93
2019-04-06T06:53:44.319Z,20.13
2019-04-06T06:56:12.247Z,19.00
2019-04-06T06:58:39.989Z,19.57
2019-04-06T07:01:07.738Z,21.20
2019-04-06T07:03:35.508Z,23.20
2019-04-06T07:06:03.332Z,22.47
2019-04-06T07:08:31.152Z,24.47
2019-04-06T07:10:59.200Z,23.37
2019-04-06T07:13:27.009Z,22.40
2019-04-06T07:15:54.771Z,23.63
2019-04-06T07:18:22.557Z,23.77
2019-04-06T07:20:50.523Z,24.17
2019-04-06T07:23:18.337Z,22.90
2019-04-06T07:25:56.653Z,24.40
2019-04-06T07:28:15.755Z,26.13
2019-04-06T07:30:43.539Z,26.17
2019-04-06T07:33:11.286Z,26.83
2019-04-06T07:35:39.222Z,26.27
2019-04-06T07:38:07.009Z,26.10
2019-04-06T07:41:05.347Z,26.90
2019-04-06T07:43:33.072Z,25.87
2019-04-06T07:46:00.876Z,26.60
2019-04-06T07:48:29.125Z,25.33
2019-04-06T07:51:16.671Z,25.67
2019-04-06T07:53:44.457Z,25.77
2019-04-06T07:56:12.492Z,26.87
2019-04-06T07:58:48.682Z,26.97
2019-04-06T08:01:10.440Z,27.37
2019-04-06T08:03:38.243Z,28.37
2019-04-06T08:06:06.047Z,26.30
2019-04-06T08:08:33.809Z,26.73
2019-04-06T08:11:01.585Z,26.30
2019-04-06T08:13:29.371Z,27.10
2019-04-06T08:15:57.187Z,26.67
2019-04-06T08:18:24.942Z,29.77
2019-04-06T08:21:00.342Z,29.23
2019-04-06T08:23:28.179Z,27.93
2019-04-06T08:25:56.363Z,30.57
2019-04-06T08:28:24.231Z,30.53
2019-04-06T08:30:52.018Z,30.33
2019-04-06T08:33:19.831Z,30.70
2019-04-06T08:35:47.609Z,30.77
2019-04-06T08:38:15.471Z,32.33
2019-04-06T08:40:43.286Z,28.93
2019-04-06T08:43:11.057Z,30.73
2019-04-06T08:45:38.860Z,28.43
2019-04-06T08:48:06.629Z,28.93
2019-04-06T08:50:34.779Z,30.27
2019-04-06T08:53:02.514Z,28.57
2019-04-06T08:55:30.747Z,25.77
2019-04-06T08:57:58.514Z,26.60
2019-04-06T09:00:31.764Z,25.43
2019-04-06T09:02:59.515Z,24.07
2019-04-06T09:05:27.339Z,24.10
2019-04-06T09:07:55.128Z,23.00
2019-04-06T09:10:23.164Z,22.02
2019-04-06T09:12:50.927Z,21.87
2019-04-06T09:15:18.708Z,22.60
2019-04-06T09:17:46.532Z,22.10
2019-04-06T09:20:14.505Z,20.33
2019-04-06T09:22:42.292Z,20.43
2019-04-06T09:25:10.249Z,19.57
2019-04-06T09:27:38.049Z,19.00
2019-04-06T09:30:06.322Z,18.57
2019-04-06T09:32:34.109Z,18.20
2019-04-06T09:35:01.938Z,18.23
2019-04-06T09:37:29.688Z,17.25
2019-04-06T09:39:57.497Z,16.62
2019-04-06T09:42:25.226Z,15.15
2019-04-06T09:44:58.645Z,15.38
2019-04-06T09:47:34.134Z,14.13
2019-04-06T09:50:20.551Z,13.55
2019-04-06T09:53:08.858Z,13.22
2019-04-06T09:55:43.274Z,14.90
2019-04-06T09:58:33.481Z,13.65
2019-04-06T10:01:37.289Z,11.65
2019-04-06T10:04:16.509Z,7.42
2019-04-06T10:07:06.680Z,7.33
2019-04-06T10:09:48.345Z,8.13
2019-04-06T10:12:29.087Z,7.97
2019-04-06T10:15:35.036Z,7.10
2019-04-06T10:18:13.718Z,5.80
2019-04-06T10:20:59.741Z,6.45
2019-04-06T10:23:49.930Z,5.92
2019-04-06T10:26:52.714Z,5.80
2019-04-06T10:29:50.253Z,6.08
2019-04-06T10:32:37.849Z,6.33
2019-04-06T10:35:17.932Z,6.45
2019-04-06T10:37:55.019Z,5.85
2019-04-06T10:40:29.963Z,5.85
2019-04-06T10:43:21.070Z,5.85
2019-04-06T10:46:23.456Z,6.22
2019-04-06T10:49:13.893Z,6.60
2019-04-06T10:52:01.291Z,6.30
2019-04-06T10:54:47.271Z,5.72
2019-04-06T10:57:29.431Z,5.55
2019-04-06T11:00:11.950Z,5.20
2019-04-06T11:02:49.284Z,5.28
2019-04-06T11:05:39.617Z,5.80
2019-04-06T11:08:33.181Z,5.28
2019-04-06T11:11:20.814Z,5.80
2019-04-06T11:14:20.313Z,5.67
2019-04-06T11:17:06.214Z,5.87
2019-04-06T11:19:46.434Z,5.50
2019-04-06T11:22:36.566Z,5.90
2019-04-06T11:25:24.361Z,6.03
2019-04-06T11:28:14.571Z,5.20
2019-04-06T11:31:03.253Z,5.90
2019-04-06T11:33:47.721Z,6.10
2019-04-06T11:36:31.060Z,6.30
2019-04-06T11:39:37.016Z,6.07
2019-04-06T11:42:14.324Z,6.17
2019-04-06T11:44:51.766Z,6.30
2019-04-06T11:47:57.463Z,6.23
2019-04-06T11:51:05.277Z,6.57
2019-04-06T11:54:07.911Z,7.27
2019-04-06T11:57:04.450Z,7.03
2019-04-06T11:59:52.451Z,6.70
2019-04-06T12:02:26.035Z,7.43
2019-04-06T12:05:10.384Z,7.27
2019-04-06T12:08:00.537Z,7.37
2019-04-06T12:10:50.941Z,7.30
2019-04-06T12:13:36.971Z,7.07
2019-04-06T12:16:15.595Z,6.63
2019-04-06T12:19:03.227Z,6.83
2019-04-06T12:21:43.017Z,6.93
2019-04-06T12:24:40.201Z,7.30
2019-04-06T12:27:30.713Z,7.03
2019-04-06T12:30:08.821Z,7.67
2019-04-06T12:33:01.996Z,7.50
2019-04-06T12:35:48.234Z,6.95
2019-04-06T12:38:27.007Z,7.65
2019-04-06T12:41:46.199Z,7.92
2019-04-06T12:44:26.980Z,7.75
2019-04-06T12:47:23.769Z,7.47
2019-04-06T12:50:02.739Z,7.25
2019-04-06T12:52:49.215Z,7.87
2019-04-06T12:55:38.376Z,8.23
2019-04-06T12:58:24.765Z,7.83
2019-04-06T13:01:21.528Z,8.70
2019-04-06T13:04:07.548Z,7.80
2019-04-06T13:07:06.960Z,8.40
2019-04-06T13:09:52.967Z,7.77
2019-04-06T13:12:40.409Z,7.90
2019-04-06T13:15:22.812Z,7.30
2019-04-06T13:18:13.013Z,8.37
2019-04-06T13:21:00.643Z,7.90
2019-04-06T13:23:45.305Z,7.87
2019-04-06T13:26:39.031Z,7.70
2019-04-06T13:29:15.734Z,7.63
2019-04-06T13:32:09.252Z,7.70
2019-04-06T13:35:14.712Z,7.00
2019-04-06T13:38:20.132Z,8.03
2019-04-06T13:41:06.537Z,7.90
2019-04-06T13:43:43.451Z,8.00
2019-04-06T13:46:21.860Z,8.47
2019-04-06T13:49:09.808Z,8.20
2019-04-06T13:51:57.422Z,8.60
2019-04-06T13:54:50.747Z,7.33
2019-04-06T13:57:31.334Z,7.60
2019-04-06T14:00:15.345Z,7.87
2019-04-06T14:02:53.685Z,7.80
2019-04-06T14:05:50.091Z,7.37
2019-04-06T14:08:42.366Z,7.93
2019-04-06T14:11:29.848Z,7.73
2019-04-06T14:14:16.021Z,7.47
2019-04-06T14:17:06.550Z,6.93
2019-04-06T14:19:47.548Z,6.30
2019-04-06T14:22:24.696Z,7.00
2019-04-06T14:25:12.152Z,6.40
2019-04-06T14:28:09.408Z,7.20
2019-04-06T14:31:09.739Z,6.73
2019-04-06T14:33:55.438Z,6.80
2019-04-06T14:36:47.302Z,6.50
2019-04-06T14:39:46.883Z,7.03
2019-04-06T14:42:52.853Z,7.13
2019-04-06T14:45:58.744Z,6.43
2019-04-06T14:48:46.496Z,6.93
2019-04-06T14:51:25.891Z,6.47
2019-04-06T14:54:16.221Z,6.90
2019-04-06T14:56:56.125Z,6.70
2019-04-06T14:59:42.323Z,7.30
2019-04-06T15:02:39.129Z,7.00
2019-04-06T15:05:22.492Z,7.30
2019-04-06T15:08:15.445Z,7.10
2019-04-06T15:11:01.928Z,7.43
2019-04-06T15:13:38.596Z,8.77
2019-04-06T15:16:29.041Z,7.30
2019-04-06T15:19:11.507Z,7.47
2019-04-06T15:22:09.152Z,7.00
2019-04-06T15:24:49.967Z,8.13
2019-04-06T15:27:31.698Z,9.27
2019-04-06T15:30:34.665Z,9.67
2019-04-06T15:33:31.170Z,8.07
2019-04-06T15:36:27.494Z,6.80
2019-04-06T15:39:23.892Z,6.53
2019-04-06T15:42:02.871Z,6.37
2019-04-06T15:44:41.541Z,7.23
2019-04-06T15:47:35.310Z,6.77
2019-04-06T15:50:28.403Z,6.87
2019-04-06T15:53:02.699Z,6.70
2019-04-06T15:55:50.196Z,6.77
2019-04-06T15:58:22.661Z,7.00
2019-04-06T16:00:59.474Z,6.80
2019-04-06T16:03:52.683Z,6.30
2019-04-06T16:06:38.733Z,6.67
2019-04-06T16:09:38.119Z,7.13
2019-04-06T16:12:50.812Z,6.83
2019-04-06T16:15:26.196Z,6.57
2019-04-06T16:18:09.921Z,7.57
2019-04-06T16:21:06.482Z,7.40
2019-04-06T16:23:43.954Z,6.93
2019-04-06T16:26:19.757Z,7.53
2019-04-06T16:28:58.696Z,7.63
2019-04-06T16:31:47.327Z,7.80
2019-04-06T16:34:43.827Z,6.83
2019-04-06T16:37:27.112Z,7.67
2019-04-06T16:40:16.004Z,8.03
2019-04-06T16:43:06.943Z,7.90
2019-04-06T16:45:47.615Z,9.00
2019-04-06T16:48:33.641Z,10.80
2019-04-06T16:51:30.131Z,10.90
2019-04-06T16:54:16.383Z,10.87
2019-04-06T16:57:02.686Z,12.40
2019-04-06T16:59:41.871Z,17.13
2019-04-06T17:02:35.326Z,9.70
2019-04-06T17:05:16.051Z,22.20
2019-04-06T17:08:10.828Z,18.27
2019-04-06T17:10:51.734Z,14.00
2019-04-06T17:13:39.877Z,13.57
2019-04-06T17:16:24.029Z,10.33
2019-04-06T17:18:58.256Z,9.27
2019-04-06T17:21:40.235Z,8.47
2019-04-06T17:24:26.774Z,8.70
2019-04-06T17:27:03.977Z,8.13
2019-04-06T17:29:49.698Z,8.93
2019-04-06T17:32:36.023Z,9.00
2019-04-06T17:35:09.340Z,11.30
2019-04-06T17:38:08.924Z,11.00
2019-04-06T17:40:53.637Z,7.80
2019-04-06T17:43:53.347Z,7.67
2019-04-06T17:46:39.343Z,7.70
2019-04-06T17:49:42.078Z,7.30
2019-04-06T17:52:26.680Z,8.40
2019-04-06T17:55:12.523Z,8.23
2019-04-06T17:57:45.928Z,9.63
2019-04-06T18:00:32.000Z,9.53
2019-04-06T18:03:22.500Z,11.47
2019-04-06T18:06:09.049Z,16.20
2019-04-06T18:09:06.456Z,15.60
2019-04-06T18:11:54.528Z,12.63
2019-04-06T18:14:22.430Z,10.10
2019-04-06T18:16:50.520Z,8.50
2019-04-06T18:19:18.578Z,8.97
2019-04-06T18:21:46.342Z,9.43
2019-04-06T18:24:14.596Z,10.20
2019-04-06T18:26:42.754Z,9.87
2019-04-06T18:29:10.805Z,10.10
2019-04-06T18:32:03.953Z,9.03
2019-04-06T18:34:32.153Z,10.00
2019-04-06T18:37:22.374Z,10.37
2019-04-06T18:39:56.894Z,9.97
2019-04-06T18:42:27.900Z,9.03
2019-04-06T18:44:55.659Z,10.53
2019-04-06T18:47:23.469Z,9.70
2019-04-06T18:49:52.467Z,9.93
2019-04-06T18:52:20.471Z,10.10
2019-04-06T18:54:48.373Z,9.90
2019-04-06T18:57:16.420Z,10.27
2019-04-06T18:59:44.793Z,10.47
2019-04-06T19:02:13.142Z,11.27
2019-04-06T19:04:41.055Z,11.53
2019-04-06T19:07:09.154Z,12.13
2019-04-06T19:09:37.025Z,13.03
2019-04-06T19:12:05.341Z,11.73
2019-04-06T19:14:34.253Z,12.47
2019-04-06T19:17:02.452Z,12.57
2019-04-06T19:19:30.782Z,12.20
2019-04-06T19:21:59.067Z,12.77
2019-04-06T19:24:27.175Z,12.73
2019-04-06T19:27:15.656Z,12.93
2019-04-06T19:29:34.770Z,13.67
2019-04-06T19:32:02.917Z,12.93
2019-04-06T19:34:31.471Z,12.40
2019-04-06T19:36:59.256Z,13.10
2019-04-06T19:39:27.389Z,14.00
2019-04-06T19:41:55.531Z,13.60
2019-04-06T19:44:24.911Z,13.10
2019-04-06T19:46:52.963Z,13.90
2019-04-06T19:49:20.845Z,14.07
2019-04-06T19:51:54.441Z,14.43
2019-04-06T19:54:22.394Z,15.73
2019-04-06T19:56:57.557Z,15.03
2019-04-06T19:59:25.467Z,15.63
2019-04-06T20:01:53.666Z,15.90
2019-04-06T20:04:21.831Z,14.90
2019-04-06T20:06:50.451Z,14.90
2019-04-06T20:09:18.661Z,14.50
2019-04-06T20:11:46.600Z,15.00
2019-04-06T20:14:14.648Z,14.73
2019-04-06T20:16:43.060Z,14.87
2019-04-06T20:19:11.155Z,15.37
2019-04-06T20:21:44.044Z,14.53
2019-04-06T20:24:11.869Z,16.27
2019-04-06T20:26:40.084Z,16.00
2019-04-06T20:29:08.020Z,15.97
2019-04-06T20:31:36.245Z,15.63
2019-04-06T20:34:05.312Z,15.97
2019-04-06T20:36:34.034Z,16.73
2019-04-06T20:39:04.104Z,15.87
2019-04-06T20:41:37.094Z,16.57
2019-04-06T20:44:05.416Z,15.93
2019-04-06T20:46:34.027Z,16.77
2019-04-06T20:49:02.167Z,16.27
2019-04-06T20:51:30.217Z,16.43
2019-04-06T20:53:58.009Z,16.97
2019-04-06T20:56:26.100Z,16.53
2019-04-06T20:58:54.193Z,17.27
2019-04-06T21:01:27.684Z,16.97
2019-04-06T21:04:01.514Z,17.30
2019-04-06T21:06:25.574Z,17.33
2019-04-06T21:08:53.771Z,16.30
2019-04-06T21:11:21.666Z,17.43
2019-04-06T21:13:49.580Z,17.63
2019-04-06T21:16:17.918Z,17.77
2019-04-06T21:18:45.823Z,18.53
2019-04-06T21:21:13.624Z,18.53
2019-04-06T21:23:41.873Z,17.70
2019-04-06T21:26:10.848Z,18.37
2019-04-06T21:28:39.030Z,18.47
2019-04-06T21:31:07.706Z,18.57
2019-04-06T21:33:37.486Z,19.07
2019-04-06T21:36:06.012Z,18.40
2019-04-06T21:38:34.361Z,19.23
2019-04-06T21:41:02.834Z,18.27
2019-04-06T21:43:31.126Z,19.43
2019-04-06T21:45:59.959Z,19.63
2019-04-06T21:48:27.931Z,19.93
2019-04-06T21:51:02.894Z,18.67
2019-04-06T21:53:31.019Z,18.27
2019-04-06T21:56:03.226Z,20.10
2019-04-06T21:58:29.026Z,19.60
2019-04-06T22:00:57.871Z,18.47
2019-04-06T22:03:25.967Z,18.67
2019-04-06T22:05:54.079Z,18.37
2019-04-06T22:08:21.949Z,18.30
2019-04-06T22:10:50.145Z,17.43
2019-04-06T22:13:18.612Z,17.90
2019-04-06T22:15:47.313Z,17.33
2019-04-06T22:18:15.471Z,18.47
2019-04-06T22:20:43.859Z,18.13
2019-04-06T22:23:11.984Z,15.80
2019-04-06T22:25:40.132Z,17.40
2019-04-06T22:28:08.838Z,17.83
2019-04-06T22:30:38.337Z,18.13
2019-04-06T22:33:07.017Z,17.50
2019-04-06T22:35:35.002Z,18.53
2019-04-06T22:38:02.971Z,18.17
2019-04-06T22:40:33.507Z,21.23
2019-04-06T22:43:03.048Z,22.37
2019-04-06T22:45:32.280Z,22.70
2019-04-06T22:48:00.394Z,20.20
2019-04-06T22:50:28.130Z,19.80
2019-04-06T22:52:56.150Z,18.27
2019-04-06T22:55:24.221Z,19.07
2019-04-06T22:57:52.203Z,22.73
2019-04-06T23:00:39.881Z,23.30
2019-04-06T23:03:34.303Z,22.13
2019-04-06T23:06:05.477Z,21.87
2019-04-06T23:08:33.866Z,21.60
2019-04-06T23:11:02.545Z,21.07
2019-04-06T23:13:31.254Z,22.20
2019-04-06T23:15:59.652Z,20.17
2019-04-06T23:18:27.532Z,20.93
2019-04-06T23:20:56.498Z,20.77
2019-04-06T23:23:24.679Z,20.00
2019-04-06T23:25:52.870Z,17.83
2019-04-06T23:28:20.820Z,20.37
2019-04-06T23:30:48.930Z,20.87
2019-04-06T23:33:16.780Z,20.03
2019-04-06T23:35:44.948Z,19.30
2019-04-06T23:38:13.282Z,19.60
2019-04-06T23:40:42.060Z,17.67
2019-04-06T23:43:10.022Z,17.97
2019-04-06T23:45:38.080Z,18.40
2019-04-06T23:48:06.083Z,18.80
2019-04-06T23:50:33.931Z,19.57
2019-04-06T23:53:01.692Z,18.43
2019-04-06T23:55:29.970Z,18.20
2019-04-06T23:57:58.076Z,19.33
